sensor_id;sensor_type;location;lat;lon;timestamp;temperature;humidity
72602;DHT22;60644;55.858;37.390;2022-09-30T00:00:00;0.00;0.00
72602;DHT22;60644;55.858;37.390;2022-09-30T00:02:26;0.00;0.00
72602;DHT22;60644;55.858;37.390;2022-09-30T00:04:52;0.00;0.00
72602;DHT22;60644;55.858;37.390;2022-09-30T00:07:18;0.00;0.00
72602;DHT22;60644;55.858;37.390;2022-09-30T00:09:43;0.00;0.00
72602;DHT22;60644;55.858;37.390;2022-09-30T00:12:09;0.00;0.00
72602;DHT22;60644;55.858;37.390;2022-09-30T00:14:35;0.00;0.00
72602;DHT22;60644;55.858;37.390;2022-09-30T00:17:01;0.00;0.00
72602;DHT22;60644;55.858;37.390;2022-09-30T00:19:27;0.00;0.00
72602;DHT22;60644;55.858;37.390;2022-09-30T00:21:53;0.00;0.00
72602;DHT22;60644;55.858;37.390;2022-09-30T00:24:18;0.00;0.00
72602;DHT22;60644;55.858;37.390;2022-09-30T00:26:45;0.00;0.00
72602;DHT22;60644;55.858;37.390;2022-09-30T00:29:11;0.00;0.00
72602;DHT22;60644;55.858;37.390;2022-09-30T00:31:38;0.00;0.00
72602;DHT22;60644;55.858;37.390;2022-09-30T00:34:04;0.00;0.00
72602;DHT22;60644;55.858;37.390;2022-09-30T00:39:05;0.00;0.00
72602;DHT22;60644;55.858;37.390;2022-09-30T00:41:33;0.00;0.00
72602;DHT22;60644;55.858;37.390;2022-09-30T00:43:59;0.00;0.00
72602;DHT22;60644;55.858;37.390;2022-09-30T00:46:38;0.00;0.00
72602;DHT22;60644;55.858;37.390;2022-09-30T00:49:15;0.00;0.00
72602;DHT22;60644;55.858;37.390;2022-09-30T00:51:46;0.00;0.00
72602;DHT22;60644;55.858;37.390;2022-09-30T00:54:21;0.00;0.00
72602;DHT22;60644;55.858;37.390;2022-09-30T00:57:02;0.00;0.00
72602;DHT22;60644;55.858;37.390;2022-09-30T00:59:32;0.00;0.00
72602;DHT22;60644;55.858;37.390;2022-09-30T01:01:59;0.00;0.00
72602;DHT22;60644;55.858;37.390;2022-09-30T01:04:28;0.00;0.00
72602;DHT22;60644;55.858;37.390;2022-09-30T01:06:58;0.00;0.00
72602;DHT22;60644;55.858;37.390;2022-09-30T01:09:24;0.00;0.00
72602;DHT22;60644;55.858;37.390;2022-09-30T01:11:50;0.00;0.00
72602;DHT22;60644;55.858;37.390;2022-09-30T01:14:21;0.00;0.00
72602;DHT22;60644;55.858;37.390;2022-09-30T01:17:00;0.00;0.00
72602;DHT22;60644;55.858;37.390;2022-09-30T01:47:22;0.00;0.00
72602;DHT22;60644;55.858;37.390;2022-09-30T01:50:06;0.00;0.00
72602;DHT22;60644;55.858;37.390;2022-09-30T01:52:40;0.00;0.00
72602;DHT22;60644;55.858;37.390;2022-09-30T02:00:12;0.00;0.00
72602;DHT22;60644;55.858;37.390;2022-09-30T02:03:00;0.00;0.00
72602;DHT22;60644;55.858;37.390;2022-09-30T02:05:49;0.00;0.00
72602;DHT22;60644;55.858;37.390;2022-09-30T02:08:25;0.00;0.00
72602;DHT22;60644;55.858;37.390;2022-09-30T02:10:59;0.00;0.00
72602;DHT22;60644;55.858;37.390;2022-09-30T02:13:31;0.00;0.00
72602;DHT22;60644;55.858;37.390;2022-09-30T02:16:24;0.00;0.00
72602;DHT22;60644;55.858;37.390;2022-09-30T02:19:00;0.00;0.00
72602;DHT22;60644;55.858;37.390;2022-09-30T02:21:32;0.00;0.00
72602;DHT22;60644;55.858;37.390;2022-09-30T02:24:04;0.00;0.00
72602;DHT22;60644;55.858;37.390;2022-09-30T02:26:36;0.00;0.00
72602;DHT22;60644;55.858;37.390;2022-09-30T02:29:12;0.00;0.00
72602;DHT22;60644;55.858;37.390;2022-09-30T02:31:41;0.00;0.00
72602;DHT22;60644;55.858;37.390;2022-09-30T02:37:30;0.00;0.00
72602;DHT22;60644;55.858;37.390;2022-09-30T02:40:23;0.00;0.00
72602;DHT22;60644;55.858;37.390;2022-09-30T02:42:51;0.00;0.00
72602;DHT22;60644;55.858;37.390;2022-09-30T02:45:20;0.00;0.00
72602;DHT22;60644;55.858;37.390;2022-09-30T02:47:57;0.00;0.00
72602;DHT22;60644;55.858;37.390;2022-09-30T02:50:34;0.00;0.00
72602;DHT22;60644;55.858;37.390;2022-09-30T02:58:20;0.00;0.00
72602;DHT22;60644;55.858;37.390;2022-09-30T03:00:47;0.00;0.00
72602;DHT22;60644;55.858;37.390;2022-09-30T03:03:18;0.00;0.00
72602;DHT22;60644;55.858;37.390;2022-09-30T03:05:45;0.00;0.00
72602;DHT22;60644;55.858;37.390;2022-09-30T03:08:13;0.00;0.00
72602;DHT22;60644;55.858;37.390;2022-09-30T03:10:39;0.00;0.00
72602;DHT22;60644;55.858;37.390;2022-09-30T03:19:07;0.00;0.00
72602;DHT22;60644;55.858;37.390;2022-09-30T03:21:42;0.00;0.00
72602;DHT22;60644;55.858;37.390;2022-09-30T03:27:43;0.00;0.00
72602;DHT22;60644;55.858;37.390;2022-09-30T03:30:18;0.00;0.00
72602;DHT22;60644;55.858;37.390;2022-09-30T03:35:45;0.00;0.00
72602;DHT22;60644;55.858;37.390;2022-09-30T03:38:34;0.00;0.00
72602;DHT22;60644;55.858;37.390;2022-09-30T03:41:28;0.00;0.00
72602;DHT22;60644;55.858;37.390;2022-09-30T03:44:01;0.00;0.00
72602;DHT22;60644;55.858;37.390;2022-09-30T03:46:42;0.00;0.00
72602;DHT22;60644;55.858;37.390;2022-09-30T03:49:14;0.00;0.00
72602;DHT22;60644;55.858;37.390;2022-09-30T03:51:42;0.00;0.00
72602;DHT22;60644;55.858;37.390;2022-09-30T03:54:11;0.00;0.00
72602;DHT22;60644;55.858;37.390;2022-09-30T03:56:38;0.00;0.00
72602;DHT22;60644;55.858;37.390;2022-09-30T03:59:16;0.00;0.00
72602;DHT22;60644;55.858;37.390;2022-09-30T04:01:45;0.00;0.00
72602;DHT22;60644;55.858;37.390;2022-09-30T04:04:14;0.00;0.00
72602;DHT22;60644;55.858;37.390;2022-09-30T04:06:40;0.00;0.00
72602;DHT22;60644;55.858;37.390;2022-09-30T04:09:07;0.00;0.00
72602;DHT22;60644;55.858;37.390;2022-09-30T04:11:33;0.00;0.00
72602;DHT22;60644;55.858;37.390;2022-09-30T04:13:59;0.00;0.00
72602;DHT22;60644;55.858;37.390;2022-09-30T04:16:28;0.00;0.00
72602;DHT22;60644;55.858;37.390;2022-09-30T04:18:54;0.00;0.00
72602;DHT22;60644;55.858;37.390;2022-09-30T04:21:24;0.00;0.00
72602;DHT22;60644;55.858;37.390;2022-09-30T04:23:54;0.00;0.00
72602;DHT22;60644;55.858;37.390;2022-09-30T04:26:20;0.00;0.00
72602;DHT22;60644;55.858;37.390;2022-09-30T04:28:46;0.00;0.00
72602;DHT22;60644;55.858;37.390;2022-09-30T04:31:13;0.00;0.00
72602;DHT22;60644;55.858;37.390;2022-09-30T04:33:42;0.00;0.00
72602;DHT22;60644;55.858;37.390;2022-09-30T04:36:13;0.00;0.00
72602;DHT22;60644;55.858;37.390;2022-09-30T04:38:39;0.00;0.00
72602;DHT22;60644;55.858;37.390;2022-09-30T04:41:05;0.00;0.00
72602;DHT22;60644;55.858;37.390;2022-09-30T04:43:32;0.00;0.00
72602;DHT22;60644;55.858;37.390;2022-09-30T04:45:59;0.00;0.00
72602;DHT22;60644;55.858;37.390;2022-09-30T04:48:25;0.00;0.00
72602;DHT22;60644;55.858;37.390;2022-09-30T04:50:53;0.00;0.00
72602;DHT22;60644;55.858;37.390;2022-09-30T04:53:18;0.00;0.00
72602;DHT22;60644;55.858;37.390;2022-09-30T04:55:45;0.00;0.00
72602;DHT22;60644;55.858;37.390;2022-09-30T04:58:11;0.00;0.00
72602;DHT22;60644;55.858;37.390;2022-09-30T05:00:38;0.00;0.00
72602;DHT22;60644;55.858;37.390;2022-09-30T05:03:04;0.00;0.00
72602;DHT22;60644;55.858;37.390;2022-09-30T05:05:31;0.00;0.00
72602;DHT22;60644;55.858;37.390;2022-09-30T05:07:59;0.00;0.00
72602;DHT22;60644;55.858;37.390;2022-09-30T05:10:26;0.00;0.00
72602;DHT22;60644;55.858;37.390;2022-09-30T05:12:52;0.00;0.00
72602;DHT22;60644;55.858;37.390;2022-09-30T05:15:18;0.00;0.00
72602;DHT22;60644;55.858;37.390;2022-09-30T05:17:48;0.00;0.00
72602;DHT22;60644;55.858;37.390;2022-09-30T05:20:17;0.00;0.00
72602;DHT22;60644;55.858;37.390;2022-09-30T05:22:43;0.00;0.00
72602;DHT22;60644;55.858;37.390;2022-09-30T05:25:10;0.00;0.00
72602;DHT22;60644;55.858;37.390;2022-09-30T05:27:36;0.00;0.00
72602;DHT22;60644;55.858;37.390;2022-09-30T05:30:02;0.00;0.00
72602;DHT22;60644;55.858;37.390;2022-09-30T05:32:29;0.00;0.00
72602;DHT22;60644;55.858;37.390;2022-09-30T05:34:56;0.00;0.00
72602;DHT22;60644;55.858;37.390;2022-09-30T05:37:22;0.00;0.00
72602;DHT22;60644;55.858;37.390;2022-09-30T05:39:48;0.00;0.00
72602;DHT22;60644;55.858;37.390;2022-09-30T05:42:14;0.00;0.00
72602;DHT22;60644;55.858;37.390;2022-09-30T05:44:39;0.00;0.00
72602;DHT22;60644;55.858;37.390;2022-09-30T05:47:06;0.00;0.00
72602;DHT22;60644;55.858;37.390;2022-09-30T05:49:32;0.00;0.00
72602;DHT22;60644;55.858;37.390;2022-09-30T05:51:59;0.00;0.00
72602;DHT22;60644;55.858;37.390;2022-09-30T05:54:25;0.00;0.00
72602;DHT22;60644;55.858;37.390;2022-09-30T05:56:51;0.00;0.00
72602;DHT22;60644;55.858;37.390;2022-09-30T05:59:17;0.00;0.00
72602;DHT22;60644;55.858;37.390;2022-09-30T06:01:44;0.00;0.00
72602;DHT22;60644;55.858;37.390;2022-09-30T06:04:10;0.00;0.00
72602;DHT22;60644;55.858;37.390;2022-09-30T06:06:36;0.00;0.00
72602;DHT22;60644;55.858;37.390;2022-09-30T06:09:03;0.00;0.00
72602;DHT22;60644;55.858;37.390;2022-09-30T06:11:29;0.00;0.00
72602;DHT22;60644;55.858;37.390;2022-09-30T06:13:56;0.00;0.00
72602;DHT22;60644;55.858;37.390;2022-09-30T06:16:23;0.00;0.00
72602;DHT22;60644;55.858;37.390;2022-09-30T06:18:49;0.00;0.00
72602;DHT22;60644;55.858;37.390;2022-09-30T06:21:16;0.00;0.00
72602;DHT22;60644;55.858;37.390;2022-09-30T06:23:42;0.00;0.00
72602;DHT22;60644;55.858;37.390;2022-09-30T06:26:10;0.00;0.00
72602;DHT22;60644;55.858;37.390;2022-09-30T06:28:37;0.00;0.00
72602;DHT22;60644;55.858;37.390;2022-09-30T06:31:04;0.00;0.00
72602;DHT22;60644;55.858;37.390;2022-09-30T06:33:31;0.00;0.00
72602;DHT22;60644;55.858;37.390;2022-09-30T06:35:57;0.00;0.00
72602;DHT22;60644;55.858;37.390;2022-09-30T06:38:24;0.00;0.00
72602;DHT22;60644;55.858;37.390;2022-09-30T06:40:51;0.00;0.00
72602;DHT22;60644;55.858;37.390;2022-09-30T06:43:17;0.00;0.00
72602;DHT22;60644;55.858;37.390;2022-09-30T06:45:46;0.00;0.00
72602;DHT22;60644;55.858;37.390;2022-09-30T06:48:13;0.00;0.00
72602;DHT22;60644;55.858;37.390;2022-09-30T06:50:41;0.00;0.00
72602;DHT22;60644;55.858;37.390;2022-09-30T06:53:08;0.00;0.00
72602;DHT22;60644;55.858;37.390;2022-09-30T06:55:38;0.00;0.00
72602;DHT22;60644;55.858;37.390;2022-09-30T06:58:13;0.00;0.00
72602;DHT22;60644;55.858;37.390;2022-09-30T07:00:39;0.00;0.00
72602;DHT22;60644;55.858;37.390;2022-09-30T07:03:05;0.00;0.00
72602;DHT22;60644;55.858;37.390;2022-09-30T07:05:37;0.00;0.00
72602;DHT22;60644;55.858;37.390;2022-09-30T07:08:03;0.00;0.00
72602;DHT22;60644;55.858;37.390;2022-09-30T07:10:30;0.00;0.00
72602;DHT22;60644;55.858;37.390;2022-09-30T07:12:56;0.00;0.00
72602;DHT22;60644;55.858;37.390;2022-09-30T07:15:22;0.00;0.00
72602;DHT22;60644;55.858;37.390;2022-09-30T07:17:56;0.00;0.00
72602;DHT22;60644;55.858;37.390;2022-09-30T07:20:23;0.00;0.00
72602;DHT22;60644;55.858;37.390;2022-09-30T07:22:49;0.00;0.00
72602;DHT22;60644;55.858;37.390;2022-09-30T07:25:15;0.00;0.00
72602;DHT22;60644;55.858;37.390;2022-09-30T07:27:41;0.00;0.00
72602;DHT22;60644;55.858;37.390;2022-09-30T07:30:08;0.00;0.00
72602;DHT22;60644;55.858;37.390;2022-09-30T07:32:34;0.00;0.00
72602;DHT22;60644;55.858;37.390;2022-09-30T07:35:00;0.00;0.00
72602;DHT22;60644;55.858;37.390;2022-09-30T07:37:26;0.00;0.00
72602;DHT22;60644;55.858;37.390;2022-09-30T07:39:52;0.00;0.00
72602;DHT22;60644;55.858;37.390;2022-09-30T07:42:18;0.00;0.00
72602;DHT22;60644;55.858;37.390;2022-09-30T07:44:47;0.00;0.00
72602;DHT22;60644;55.858;37.390;2022-09-30T07:47:13;0.00;0.00
72602;DHT22;60644;55.858;37.390;2022-09-30T07:49:40;0.00;0.00
72602;DHT22;60644;55.858;37.390;2022-09-30T07:52:07;0.00;0.00
72602;DHT22;60644;55.858;37.390;2022-09-30T07:54:34;0.00;0.00
72602;DHT22;60644;55.858;37.390;2022-09-30T07:57:02;0.00;0.00
72602;DHT22;60644;55.858;37.390;2022-09-30T07:59:30;0.00;0.00
72602;DHT22;60644;55.858;37.390;2022-09-30T08:01:57;0.00;0.00
72602;DHT22;60644;55.858;37.390;2022-09-30T08:04:25;0.00;0.00
72602;DHT22;60644;55.858;37.390;2022-09-30T08:06:54;0.00;0.00
72602;DHT22;60644;55.858;37.390;2022-09-30T08:09:22;0.00;0.00
72602;DHT22;60644;55.858;37.390;2022-09-30T08:11:48;0.00;0.00
72602;DHT22;60644;55.858;37.390;2022-09-30T08:14:20;0.00;0.00
72602;DHT22;60644;55.858;37.390;2022-09-30T08:16:46;0.00;0.00
72602;DHT22;60644;55.858;37.390;2022-09-30T08:19:17;0.00;0.00
72602;DHT22;60644;55.858;37.390;2022-09-30T08:21:44;0.00;0.00
72602;DHT22;60644;55.858;37.390;2022-09-30T08:24:10;0.00;0.00
72602;DHT22;60644;55.858;37.390;2022-09-30T08:26:37;0.00;0.00
72602;DHT22;60644;55.858;37.390;2022-09-30T08:29:03;0.00;0.00
72602;DHT22;60644;55.858;37.390;2022-09-30T08:31:29;0.00;0.00
72602;DHT22;60644;55.858;37.390;2022-09-30T08:33:55;0.00;0.00
72602;DHT22;60644;55.858;37.390;2022-09-30T08:36:23;0.00;0.00
72602;DHT22;60644;55.858;37.390;2022-09-30T08:38:49;0.00;0.00
72602;DHT22;60644;55.858;37.390;2022-09-30T08:52:46;0.00;0.00
72602;DHT22;60644;55.858;37.390;2022-09-30T08:55:33;0.00;0.00
72602;DHT22;60644;55.858;37.390;2022-09-30T08:58:01;0.00;0.00
72602;DHT22;60644;55.858;37.390;2022-09-30T09:00:27;0.00;0.00
72602;DHT22;60644;55.858;37.390;2022-09-30T09:02:55;0.00;0.00
72602;DHT22;60644;55.858;37.390;2022-09-30T09:10:42;0.00;0.00
72602;DHT22;60644;55.858;37.390;2022-09-30T09:16:12;0.00;0.00
72602;DHT22;60644;55.858;37.390;2022-09-30T09:21:53;0.00;0.00
72602;DHT22;60644;55.858;37.390;2022-09-30T09:24:34;0.00;0.00
72602;DHT22;60644;55.858;37.390;2022-09-30T09:27:16;0.00;0.00
72602;DHT22;60644;55.858;37.390;2022-09-30T09:30:16;0.00;0.00
72602;DHT22;60644;55.858;37.390;2022-09-30T09:32:53;0.00;0.00
72602;DHT22;60644;55.858;37.390;2022-09-30T09:41:24;0.00;0.00
72602;DHT22;60644;55.858;37.390;2022-09-30T09:46:42;0.00;0.00
72602;DHT22;60644;55.858;37.390;2022-09-30T09:54:17;0.00;0.00
72602;DHT22;60644;55.858;37.390;2022-09-30T09:56:46;0.00;0.00
72602;DHT22;60644;55.858;37.390;2022-09-30T09:59:16;0.00;0.00
72602;DHT22;60644;55.858;37.390;2022-09-30T10:01:47;0.00;0.00
72602;DHT22;60644;55.858;37.390;2022-09-30T10:04:20;0.00;0.00
72602;DHT22;60644;55.858;37.390;2022-09-30T10:06:50;0.00;0.00
72602;DHT22;60644;55.858;37.390;2022-09-30T10:09:39;0.00;0.00
72602;DHT22;60644;55.858;37.390;2022-09-30T10:14:37;0.00;0.00
72602;DHT22;60644;55.858;37.390;2022-09-30T10:17:37;0.00;0.00
72602;DHT22;60644;55.858;37.390;2022-09-30T10:22:39;0.00;0.00
72602;DHT22;60644;55.858;37.390;2022-09-30T10:25:19;0.00;0.00
72602;DHT22;60644;55.858;37.390;2022-09-30T10:27:49;0.00;0.00
72602;DHT22;60644;55.858;37.390;2022-09-30T10:30:38;0.00;0.00
72602;DHT22;60644;55.858;37.390;2022-09-30T10:33:15;0.00;0.00
72602;DHT22;60644;55.858;37.390;2022-09-30T10:36:12;0.00;0.00
72602;DHT22;60644;55.858;37.390;2022-09-30T10:38:56;0.00;0.00
72602;DHT22;60644;55.858;37.390;2022-09-30T10:41:26;0.00;0.00
72602;DHT22;60644;55.858;37.390;2022-09-30T10:43:55;0.00;0.00
72602;DHT22;60644;55.858;37.390;2022-09-30T10:46:25;0.00;0.00
72602;DHT22;60644;55.858;37.390;2022-09-30T10:48:53;0.00;0.00
72602;DHT22;60644;55.858;37.390;2022-09-30T10:51:27;0.00;0.00
72602;DHT22;60644;55.858;37.390;2022-09-30T10:53:54;0.00;0.00
72602;DHT22;60644;55.858;37.390;2022-09-30T10:56:44;0.00;0.00
72602;DHT22;60644;55.858;37.390;2022-09-30T10:59:33;0.00;0.00
72602;DHT22;60644;55.858;37.390;2022-09-30T11:02:14;0.00;0.00
72602;DHT22;60644;55.858;37.390;2022-09-30T11:04:53;0.00;0.00
72602;DHT22;60644;55.858;37.390;2022-09-30T11:07:28;0.00;0.00
72602;DHT22;60644;55.858;37.390;2022-09-30T11:10:02;0.00;0.00
72602;DHT22;60644;55.858;37.390;2022-09-30T11:12:43;0.00;0.00
72602;DHT22;60644;55.858;37.390;2022-09-30T11:15:14;19.70;59.44
72602;DHT22;60644;55.858;37.390;2022-09-30T11:17:51;19.98;57.96
72602;DHT22;60644;55.858;37.390;2022-09-30T11:20:26;19.87;58.96
72602;DHT22;60644;55.858;37.390;2022-09-30T11:23:06;19.58;58.29
72602;DHT22;60644;55.858;37.390;2022-09-30T11:26:03;19.24;57.90
72602;DHT22;60644;55.858;37.390;2022-09-30T11:34:03;18.56;58.22
72602;DHT22;60644;55.858;37.390;2022-09-30T11:42:00;18.18;59.45
72602;DHT22;60644;55.858;37.390;2022-09-30T11:44:37;18.12;60.80
72602;DHT22;60644;55.858;37.390;2022-09-30T11:53:41;17.76;61.49
72602;DHT22;60644;55.858;37.390;2022-09-30T11:59:25;17.68;62.06
72602;DHT22;60644;55.858;37.390;2022-09-30T12:01:56;17.65;61.98
72602;DHT22;60644;55.858;37.390;2022-09-30T12:04:42;17.62;62.18
72602;DHT22;60644;55.858;37.390;2022-09-30T12:07:16;17.60;62.50
72602;DHT22;60644;55.858;37.390;2022-09-30T12:09:53;17.54;62.49
72602;DHT22;60644;55.858;37.390;2022-09-30T12:12:22;17.54;63.08
72602;DHT22;60644;55.858;37.390;2022-09-30T12:15:15;17.49;62.34
72602;DHT22;60644;55.858;37.390;2022-09-30T12:18:04;17.50;62.77
72602;DHT22;60644;55.858;37.390;2022-09-30T12:20:40;17.46;62.27
72602;DHT22;60644;55.858;37.390;2022-09-30T12:24:02;17.53;62.57
72602;DHT22;60644;55.858;37.390;2022-09-30T12:26:09;17.59;62.16
72602;DHT22;60644;55.858;37.390;2022-09-30T12:28:43;17.61;62.74
72602;DHT22;60644;55.858;37.390;2022-09-30T12:45:23;17.64;62.91
72602;DHT22;60644;55.858;37.390;2022-09-30T12:47:54;17.62;62.81
72602;DHT22;60644;55.858;37.390;2022-09-30T12:50:26;17.65;62.98
72602;DHT22;60644;55.858;37.390;2022-09-30T12:52:55;17.67;63.08
72602;DHT22;60644;55.858;37.390;2022-09-30T12:55:37;17.65;62.89
72602;DHT22;60644;55.858;37.390;2022-09-30T12:58:04;17.66;63.29
72602;DHT22;60644;55.858;37.390;2022-09-30T13:00:32;17.67;63.11
72602;DHT22;60644;55.858;37.390;2022-09-30T13:03:08;17.65;63.31
72602;DHT22;60644;55.858;37.390;2022-09-30T13:23:48;17.52;64.08
72602;DHT22;60644;55.858;37.390;2022-09-30T13:31:29;17.43;64.47
72602;DHT22;60644;55.858;37.390;2022-09-30T13:39:46;17.47;64.59
72602;DHT22;60644;55.858;37.390;2022-09-30T13:42:20;17.50;64.63
72602;DHT22;60644;55.858;37.390;2022-09-30T13:50:19;17.49;64.88
72602;DHT22;60644;55.858;37.390;2022-09-30T13:52:57;17.45;65.02
72602;DHT22;60644;55.858;37.390;2022-09-30T13:55:41;17.43;65.14
72602;DHT22;60644;55.858;37.390;2022-09-30T14:00:56;17.37;65.36
72602;DHT22;60644;55.858;37.390;2022-09-30T14:09:28;17.28;65.72
72602;DHT22;60644;55.858;37.390;2022-09-30T14:22:13;17.25;65.70
72602;DHT22;60644;55.858;37.390;2022-09-30T14:24:40;17.14;67.17
72602;DHT22;60644;55.858;37.390;2022-09-30T14:27:22;16.99;67.59
72602;DHT22;60644;55.858;37.390;2022-09-30T14:32:47;16.74;70.01
72602;DHT22;60644;55.858;37.390;2022-09-30T14:35:27;16.64;71.56
72602;DHT22;60644;55.858;37.390;2022-09-30T14:40:34;16.54;72.03
72602;DHT22;60644;55.858;37.390;2022-09-30T14:43:06;16.50;72.93
72602;DHT22;60644;55.858;37.390;2022-09-30T14:45:37;16.48;72.53
72602;DHT22;60644;55.858;37.390;2022-09-30T14:48:17;16.44;73.26
72602;DHT22;60644;55.858;37.390;2022-09-30T14:51:00;16.36;73.90
72602;DHT22;60644;55.858;37.390;2022-09-30T14:55:57;16.33;73.58
72602;DHT22;60644;55.858;37.390;2022-09-30T15:01:15;16.25;74.47
72602;DHT22;60644;55.858;37.390;2022-09-30T15:03:44;16.26;74.60
72602;DHT22;60644;55.858;37.390;2022-09-30T15:06:18;16.21;75.05
72602;DHT22;60644;55.858;37.390;2022-09-30T15:08:45;16.24;74.35
72602;DHT22;60644;55.858;37.390;2022-09-30T15:11:20;16.20;74.83
72602;DHT22;60644;55.858;37.390;2022-09-30T15:13:47;16.17;75.25
72602;DHT22;60644;55.858;37.390;2022-09-30T15:16:29;16.14;75.32
72602;DHT22;60644;55.858;37.390;2022-09-30T15:18:56;16.14;75.34
72602;DHT22;60644;55.858;37.390;2022-09-30T15:21:24;16.15;75.15
72602;DHT22;60644;55.858;37.390;2022-09-30T15:23:54;16.11;75.15
72602;DHT22;60644;55.858;37.390;2022-09-30T15:26:23;16.06;76.62
72602;DHT22;60644;55.858;37.390;2022-09-30T15:28:49;16.02;76.64
72602;DHT22;60644;55.858;37.390;2022-09-30T15:31:28;16.01;75.67
72602;DHT22;60644;55.858;37.390;2022-09-30T15:34:04;16.00;76.04
72602;DHT22;60644;55.858;37.390;2022-09-30T15:36:33;15.99;76.23
72602;DHT22;60644;55.858;37.390;2022-09-30T15:39:00;15.97;76.59
72602;DHT22;60644;55.858;37.390;2022-09-30T15:41:27;15.97;76.58
72602;DHT22;60644;55.858;37.390;2022-09-30T15:43:53;15.89;76.76
72602;DHT22;60644;55.858;37.390;2022-09-30T15:46:30;15.95;76.48
72602;DHT22;60644;55.858;37.390;2022-09-30T15:49:00;15.92;76.70
72602;DHT22;60644;55.858;37.390;2022-09-30T15:51:28;15.93;76.58
72602;DHT22;60644;55.858;37.390;2022-09-30T15:53:58;15.91;76.78
72602;DHT22;60644;55.858;37.390;2022-09-30T15:56:34;15.93;76.04
72602;DHT22;60644;55.858;37.390;2022-09-30T16:01:43;15.95;75.75
72602;DHT22;60644;55.858;37.390;2022-09-30T16:06:46;16.03;75.38
72602;DHT22;60644;55.858;37.390;2022-09-30T16:14:24;16.12;73.90
72602;DHT22;60644;55.858;37.390;2022-09-30T16:16:54;16.06;74.45
72602;DHT22;60644;55.858;37.390;2022-09-30T16:19:21;16.00;74.64
72602;DHT22;60644;55.858;37.390;2022-09-30T16:21:50;16.00;74.62
72602;DHT22;60644;55.858;37.390;2022-09-30T16:26:58;16.00;74.65
72602;DHT22;60644;55.858;37.390;2022-09-30T16:29:26;15.98;74.49
72602;DHT22;60644;55.858;37.390;2022-09-30T16:31:55;15.89;75.22
72602;DHT22;60644;55.858;37.390;2022-09-30T16:34:27;15.87;74.73
72602;DHT22;60644;55.858;37.390;2022-09-30T16:36:56;15.87;74.72
72602;DHT22;60644;55.858;37.390;2022-09-30T16:39:28;15.88;74.70
72602;DHT22;60644;55.858;37.390;2022-09-30T16:41:53;15.83;74.62
72602;DHT22;60644;55.858;37.390;2022-09-30T16:44:19;15.82;74.79
72602;DHT22;60644;55.858;37.390;2022-09-30T16:46:49;15.77;75.25
72602;DHT22;60644;55.858;37.390;2022-09-30T16:49:18;15.73;75.20
72602;DHT22;60644;55.858;37.390;2022-09-30T16:51:44;15.66;75.39
72602;DHT22;60644;55.858;37.390;2022-09-30T16:54:11;15.68;75.31
72602;DHT22;60644;55.858;37.390;2022-09-30T16:56:38;15.66;75.17
72602;DHT22;60644;55.858;37.390;2022-09-30T16:59:11;15.67;75.10
72602;DHT22;60644;55.858;37.390;2022-09-30T17:01:38;15.72;74.61
72602;DHT22;60644;55.858;37.390;2022-09-30T17:04:04;15.77;74.46
72602;DHT22;60644;55.858;37.390;2022-09-30T17:06:31;15.76;74.14
72602;DHT22;60644;55.858;37.390;2022-09-30T17:08:58;15.76;74.00
72602;DHT22;60644;55.858;37.390;2022-09-30T17:11:31;15.75;73.98
72602;DHT22;60644;55.858;37.390;2022-09-30T17:14:01;15.73;74.01
72602;DHT22;60644;55.858;37.390;2022-09-30T17:16:28;15.75;73.70
72602;DHT22;60644;55.858;37.390;2022-09-30T17:18:55;15.75;74.27
72602;DHT22;60644;55.858;37.390;2022-09-30T17:21:23;15.76;73.95
72602;DHT22;60644;55.858;37.390;2022-09-30T17:23:49;15.78;73.65
72602;DHT22;60644;55.858;37.390;2022-09-30T17:26:16;15.82;73.44
72602;DHT22;60644;55.858;37.390;2022-09-30T17:28:42;15.80;73.42
72602;DHT22;60644;55.858;37.390;2022-09-30T17:31:09;15.81;73.39
72602;DHT22;60644;55.858;37.390;2022-09-30T17:33:38;15.82;73.15
72602;DHT22;60644;55.858;37.390;2022-09-30T17:36:06;15.83;73.24
72602;DHT22;60644;55.858;37.390;2022-09-30T17:38:33;15.84;73.09
72602;DHT22;60644;55.858;37.390;2022-09-30T17:41:00;15.86;72.99
72602;DHT22;60644;55.858;37.390;2022-09-30T17:43:44;15.88;73.25
72602;DHT22;60644;55.858;37.390;2022-09-30T17:46:14;15.82;73.48
72602;DHT22;60644;55.858;37.390;2022-09-30T17:48:44;15.81;73.40
72602;DHT22;60644;55.858;37.390;2022-09-30T17:51:12;15.80;73.39
72602;DHT22;60644;55.858;37.390;2022-09-30T17:53:38;15.81;73.32
72602;DHT22;60644;55.858;37.390;2022-09-30T17:56:07;15.78;73.66
72602;DHT22;60644;55.858;37.390;2022-09-30T17:58:42;15.75;73.67
72602;DHT22;60644;55.858;37.390;2022-09-30T18:01:13;15.76;73.57
72602;DHT22;60644;55.858;37.390;2022-09-30T18:03:39;15.75;73.65
72602;DHT22;60644;55.858;37.390;2022-09-30T18:06:06;15.77;73.60
72602;DHT22;60644;55.858;37.390;2022-09-30T18:08:32;15.78;73.61
72602;DHT22;60644;55.858;37.390;2022-09-30T18:10:59;15.81;73.56
72602;DHT22;60644;55.858;37.390;2022-09-30T18:13:28;15.81;73.65
72602;DHT22;60644;55.858;37.390;2022-09-30T18:15:55;15.78;73.51
72602;DHT22;60644;55.858;37.390;2022-09-30T18:18:27;15.78;73.57
72602;DHT22;60644;55.858;37.390;2022-09-30T18:20:53;15.70;74.12
72602;DHT22;60644;55.858;37.390;2022-09-30T18:23:19;15.65;74.20
72602;DHT22;60644;55.858;37.390;2022-09-30T18:25:46;15.59;74.63
72602;DHT22;60644;55.858;37.390;2022-09-30T18:28:15;15.54;75.15
72602;DHT22;60644;55.858;37.390;2022-09-30T18:30:41;15.48;75.68
72602;DHT22;60644;55.858;37.390;2022-09-30T18:33:08;15.45;75.51
72602;DHT22;60644;55.858;37.390;2022-09-30T18:35:37;15.45;75.25
72602;DHT22;60644;55.858;37.390;2022-09-30T18:38:05;15.46;75.38
72602;DHT22;60644;55.858;37.390;2022-09-30T18:40:32;15.42;75.89
72602;DHT22;60644;55.858;37.390;2022-09-30T18:43:01;15.42;75.73
72602;DHT22;60644;55.858;37.390;2022-09-30T18:45:29;15.41;76.02
72602;DHT22;60644;55.858;37.390;2022-09-30T18:47:58;15.38;76.04
72602;DHT22;60644;55.858;37.390;2022-09-30T18:50:25;15.37;76.22
72602;DHT22;60644;55.858;37.390;2022-09-30T18:52:56;15.38;76.37
72602;DHT22;60644;55.858;37.390;2022-09-30T18:55:23;15.39;76.12
72602;DHT22;60644;55.858;37.390;2022-09-30T18:57:55;15.40;76.23
72602;DHT22;60644;55.858;37.390;2022-09-30T19:00:24;15.41;76.05
72602;DHT22;60644;55.858;37.390;2022-09-30T19:02:54;15.41;76.06
72602;DHT22;60644;55.858;37.390;2022-09-30T19:05:20;15.41;76.27
72602;DHT22;60644;55.858;37.390;2022-09-30T19:07:46;15.41;76.35
72602;DHT22;60644;55.858;37.390;2022-09-30T19:10:12;15.39;76.37
72602;DHT22;60644;55.858;37.390;2022-09-30T19:12:39;15.40;76.32
72602;DHT22;60644;55.858;37.390;2022-09-30T19:15:10;15.42;76.03
72602;DHT22;60644;55.858;37.390;2022-09-30T19:17:36;15.43;76.34
72602;DHT22;60644;55.858;37.390;2022-09-30T19:20:05;15.42;76.42
72602;DHT22;60644;55.858;37.390;2022-09-30T19:22:32;15.44;76.17
72602;DHT22;60644;55.858;37.390;2022-09-30T19:25:10;15.40;76.56